createdAt,value
2022-12-18T00:00:47.911Z,6.80
2022-12-18T00:05:52.099Z,7.30
2022-12-18T00:10:54.834Z,7.00
2022-12-18T00:16:09.006Z,6.10
2022-12-18T00:21:13.163Z,5.80
2022-12-18T00:26:21.173Z,5.80
2022-12-18T00:31:27.114Z,4.60
2022-12-18T00:36:34.262Z,4.40
2022-12-18T00:41:55.393Z,4.20
2022-12-18T00:46:57.829Z,6.00
2022-12-18T00:52:01.401Z,4.90
2022-12-18T00:57:03.824Z,5.20
2022-12-18T01:02:06.238Z,4.00
2022-12-18T01:07:09.953Z,4.20
2022-12-18T01:12:12.327Z,3.70
2022-12-18T01:17:15.537Z,4.80
2022-12-18T01:22:17.998Z,4.70
2022-12-18T01:27:20.880Z,4.40
2022-12-18T01:32:23.271Z,4.40
2022-12-18T01:37:26.172Z,3.80
2022-12-18T01:42:28.639Z,4.20
2022-12-18T01:47:40.263Z,4.30
2022-12-18T01:52:45.859Z,4.80
2022-12-18T01:57:48.421Z,4.20
2022-12-18T02:02:51.280Z,4.90
2022-12-18T02:08:16.263Z,3.90
2022-12-18T02:13:39.482Z,5.10
2022-12-18T02:18:48.681Z,5.00
2022-12-18T02:24:09.708Z,4.40
2022-12-18T02:29:24.049Z,1.60
2022-12-18T02:34:30.812Z,0.50
2022-12-18T02:39:35.386Z,-0.30
2022-12-18T02:44:45.617Z,1.00
2022-12-18T02:49:50.019Z,3.30
2022-12-18T02:55:04.874Z,4.90
2022-12-18T03:00:14.758Z,4.70
2022-12-18T03:05:32.275Z,3.80
2022-12-18T03:10:40.570Z,3.80
2022-12-18T03:15:48.101Z,4.20
2022-12-18T03:20:53.638Z,4.60
2022-12-18T03:26:07.100Z,3.50
2022-12-18T03:31:15.074Z,1.60
2022-12-18T03:36:18.165Z,0.50
2022-12-18T03:41:29.897Z,1.20
2022-12-18T03:47:37.229Z,3.20
2022-12-18T03:52:44.034Z,0.50
2022-12-18T03:57:48.288Z,0.40
2022-12-18T04:02:56.277Z,-0.80
2022-12-18T04:08:06.628Z,-0.90
2022-12-18T04:13:13.113Z,2.30
2022-12-18T04:18:16.557Z,2.40
2022-12-18T04:23:19.817Z,2.50
2022-12-18T04:28:23.330Z,1.00
2022-12-18T04:33:25.960Z,-0.30
2022-12-18T04:38:28.393Z,-0.10
2022-12-18T04:43:39.300Z,-0.30
2022-12-18T04:48:46.080Z,-0.90
2022-12-18T04:53:48.474Z,-1.50
2022-12-18T04:58:50.949Z,0.30
2022-12-18T05:03:53.434Z,2.30
2022-12-18T05:08:55.850Z,3.20
2022-12-18T05:13:58.278Z,1.50
2022-12-18T05:19:03.861Z,-0.80
2022-12-18T05:24:09.398Z,-1.60
2022-12-18T05:29:13.368Z,-1.20
2022-12-18T05:34:16.687Z,1.90
2022-12-18T05:39:19.134Z,3.30
2022-12-18T05:44:21.526Z,3.60
2022-12-18T05:49:23.949Z,1.40
2022-12-18T05:54:28.946Z,-0.50
2022-12-18T05:59:31.302Z,-0.30
2022-12-18T06:04:34.041Z,0.20
2022-12-18T06:09:36.470Z,0.20
2022-12-18T06:14:39.010Z,-1.40
2022-12-18T06:19:41.352Z,1.10
2022-12-18T06:24:43.740Z,2.50
2022-12-18T06:29:46.666Z,3.80
2022-12-18T06:34:48.973Z,4.20
2022-12-18T06:39:51.317Z,0.80
2022-12-18T06:44:53.703Z,0.30
2022-12-18T06:49:56.090Z,-0.90
2022-12-18T06:54:58.422Z,-0.10
2022-12-18T07:00:00.929Z,-1.10
2022-12-18T07:05:09.092Z,-1.40
2022-12-18T07:10:13.099Z,1.20
2022-12-18T07:15:15.554Z,1.20
2022-12-18T07:20:18.080Z,1.40
2022-12-18T07:25:20.502Z,2.10
2022-12-18T07:30:22.805Z,1.00
2022-12-18T07:35:25.675Z,-0.70
2022-12-18T07:40:28.081Z,-0.50
2022-12-18T07:45:30.491Z,-1.40
2022-12-18T07:50:32.840Z,-1.90
2022-12-18T07:55:54.734Z,-0.80
2022-12-18T08:01:08.967Z,2.20
2022-12-18T08:06:11.668Z,2.30
2022-12-18T08:11:13.986Z,0.60
2022-12-18T08:16:16.499Z,-0.10
2022-12-18T08:21:23.813Z,1.40
2022-12-18T08:26:28.760Z,4.00
2022-12-18T08:31:31.898Z,5.90
2022-12-18T08:36:34.497Z,4.20
2022-12-18T08:41:36.840Z,3.90
2022-12-18T08:46:41.358Z,1.60
2022-12-18T08:51:43.878Z,-0.30
2022-12-18T08:56:46.288Z,0.10
2022-12-18T09:01:49.267Z,0.20
2022-12-18T09:06:51.683Z,0.50
2022-12-18T09:11:57.092Z,-0.20
2022-12-18T09:16:59.541Z,-0.50
2022-12-18T09:22:05.060Z,-0.50
2022-12-18T09:27:07.532Z,-0.60
2022-12-18T09:32:09.978Z,-0.50
2022-12-18T09:37:12.374Z,-0.90
2022-12-18T09:42:23.393Z,-0.40
2022-12-18T09:47:31.426Z,-0.80
2022-12-18T09:52:44.978Z,0.40
2022-12-18T09:57:54.110Z,0.40
2022-12-18T10:03:12.204Z,0.50
2022-12-18T10:08:19.404Z,2.40
2022-12-18T10:13:36.902Z,1.70
2022-12-18T10:18:56.895Z,1.80
2022-12-18T10:24:22.907Z,3.30
2022-12-18T10:29:27.147Z,2.80
2022-12-18T10:34:29.462Z,2.70
2022-12-18T10:39:31.938Z,2.20
2022-12-18T10:44:34.375Z,0.90
2022-12-18T10:49:37.985Z,0.30
2022-12-18T10:54:40.431Z,0.00
2022-12-18T10:59:53.073Z,0.20
2022-12-18T11:04:55.595Z,0.10
2022-12-18T11:10:02.138Z,1.00
2022-12-18T11:15:05.180Z,1.20
2022-12-18T11:20:32.709Z,0.40
2022-12-18T11:25:36.164Z,0.20
2022-12-18T11:30:39.163Z,-0.20
2022-12-18T11:35:44.637Z,0.20
2022-12-18T11:40:52.619Z,0.50
2022-12-18T11:46:07.328Z,0.20
2022-12-18T11:51:19.859Z,0.10
2022-12-18T11:56:37.386Z,0.10
2022-12-18T12:02:26.055Z,0.40
2022-12-18T12:07:53.493Z,-0.50
2022-12-18T12:13:17.425Z,1.20
2022-12-18T12:18:19.774Z,2.30
2022-12-18T12:24:06.193Z,1.50
2022-12-18T12:29:36.963Z,1.20
2022-12-18T12:34:45.394Z,1.20
2022-12-18T12:39:49.010Z,0.40
2022-12-18T12:44:59.078Z,0.10
2022-12-18T12:50:06.132Z,0.10
2022-12-18T12:55:21.391Z,-0.30
2022-12-18T13:00:27.237Z,-0.30
2022-12-18T13:05:42.829Z,-0.50
2022-12-18T13:10:45.310Z,-0.60
2022-12-18T13:15:49.497Z,0.60
2022-12-18T13:21:06.573Z,1.20
2022-12-18T13:26:12.854Z,1.30
2022-12-18T13:31:34.898Z,1.50
2022-12-18T13:36:37.429Z,-1.40
2022-12-18T13:41:40.024Z,-1.90
2022-12-18T13:46:47.521Z,-2.00
2022-12-18T13:51:56.061Z,-1.90
2022-12-18T13:56:58.518Z,-1.70
2022-12-18T14:02:19.096Z,-1.20
2022-12-18T14:07:27.073Z,-1.30
2022-12-18T14:12:53.214Z,-1.20
2022-12-18T14:18:10.565Z,-1.50
2022-12-18T14:23:35.209Z,-1.70
2022-12-18T14:28:44.777Z,-2.00
2022-12-18T14:33:47.363Z,-2.10
2022-12-18T14:38:51.942Z,-1.40
2022-12-18T14:43:55.522Z,-1.40
2022-12-18T14:48:58.557Z,-1.50
2022-12-18T14:54:03.599Z,-0.90
2022-12-18T14:59:17.032Z,-0.30
2022-12-18T15:04:36.718Z,-0.40
2022-12-18T15:09:40.688Z,-0.40
2022-12-18T15:14:43.173Z,0.20
2022-12-18T15:19:47.269Z,-0.20
2022-12-18T15:24:50.681Z,-0.50
2022-12-18T15:30:10.613Z,0.40
2022-12-18T15:35:25.155Z,1.50
2022-12-18T15:40:27.609Z,2.30
2022-12-18T15:45:30.305Z,1.20
2022-12-18T15:50:32.762Z,0.50
2022-12-18T15:55:57.883Z,-0.10
2022-12-18T16:01:03.648Z,0.10
2022-12-18T16:06:06.438Z,0.00
2022-12-18T16:11:38.902Z,0.20
2022-12-18T16:16:41.528Z,0.50
2022-12-18T16:21:44.641Z,0.70
2022-12-18T16:26:47.204Z,1.90
2022-12-18T16:31:49.503Z,1.80
2022-12-18T16:36:52.555Z,3.40
2022-12-18T16:41:55.171Z,4.80
2022-12-18T16:52:06.450Z,-2.10
2022-12-18T17:07:20.361Z,-4.30
2022-12-18T17:12:23.362Z,-4.80
2022-12-18T17:17:25.766Z,-5.00
2022-12-18T17:22:28.252Z,-5.20
2022-12-18T17:27:30.886Z,-5.30
2022-12-18T17:32:33.334Z,-5.40
2022-12-18T17:37:35.886Z,-5.40
2022-12-18T17:42:38.276Z,-5.50
2022-12-18T17:47:40.611Z,-5.40
2022-12-18T17:52:43.370Z,-5.40
2022-12-18T18:02:48.817Z,-3.40
2022-12-18T18:07:51.344Z,-2.70
2022-12-18T18:13:13.885Z,-1.60
2022-12-18T18:18:16.214Z,-1.40
2022-12-18T18:23:19.922Z,0.00
2022-12-18T18:28:25.755Z,1.20
2022-12-18T18:33:28.147Z,1.30
2022-12-18T18:38:30.645Z,1.40
2022-12-18T18:43:33.410Z,2.10
2022-12-18T18:48:37.478Z,0.80
2022-12-18T18:53:44.066Z,0.60
2022-12-18T18:58:46.811Z,0.50
2022-12-18T19:03:50.019Z,-2.90
2022-12-18T19:08:53.621Z,-3.90
2022-12-18T19:13:57.442Z,-4.50
2022-12-18T19:19:02.316Z,-5.00
2022-12-18T19:24:06.387Z,-5.20
2022-12-18T19:29:11.065Z,-5.40
2022-12-18T19:39:19.256Z,-5.60
2022-12-18T19:44:21.761Z,-5.60
2022-12-18T19:49:24.265Z,-5.10
2022-12-18T19:54:26.662Z,-4.40
2022-12-18T19:59:29.032Z,-3.70
2022-12-18T20:04:32.153Z,-3.10
2022-12-18T20:09:36.824Z,-4.20
2022-12-18T20:14:39.635Z,-5.40
2022-12-18T20:19:42.246Z,-5.70
2022-12-18T20:24:47.033Z,-5.80
2022-12-18T20:29:52.109Z,-5.90
2022-12-18T20:34:54.544Z,-5.90
2022-12-18T20:39:57.854Z,-6.00
2022-12-18T20:45:01.119Z,-6.10
2022-12-18T20:50:05.052Z,-6.10
2022-12-18T20:55:07.944Z,-6.10
2022-12-18T21:00:11.323Z,-6.10
2022-12-18T21:05:15.218Z,-6.20
2022-12-18T21:10:17.686Z,-6.10
2022-12-18T21:15:28.215Z,-6.10
2022-12-18T21:20:31.452Z,-5.90
2022-12-18T21:25:33.885Z,-5.20
2022-12-18T21:30:36.369Z,-5.80
2022-12-18T21:35:38.831Z,-5.40
2022-12-18T21:40:41.298Z,-3.30
2022-12-18T21:45:44.167Z,-1.00
2022-12-18T21:50:46.710Z,-0.50
2022-12-18T21:55:59.164Z,-0.30
2022-12-18T22:01:02.516Z,0.20
2022-12-18T22:06:09.296Z,0.60
2022-12-18T22:11:13.200Z,1.10
2022-12-18T22:16:15.728Z,1.60
2022-12-18T22:21:30.307Z,1.30
2022-12-18T22:26:39.846Z,1.90
2022-12-18T22:31:42.640Z,2.10
2022-12-18T22:36:48.576Z,2.10
2022-12-18T22:41:51.553Z,0.70
2022-12-18T22:47:05.686Z,1.30
2022-12-18T22:52:10.072Z,2.30
2022-12-18T22:57:13.109Z,2.50
2022-12-18T23:02:15.678Z,2.50
2022-12-18T23:07:18.173Z,2.90
2022-12-18T23:12:20.562Z,3.40
2022-12-18T23:17:23.184Z,3.30
2022-12-18T23:22:25.567Z,2.80
2022-12-18T23:27:27.997Z,3.40
2022-12-18T23:32:30.288Z,3.80
2022-12-18T23:37:58.346Z,3.70
2022-12-18T23:42:59.664Z,2.90
2022-12-18T23:48:02.062Z,1.50
2022-12-18T23:53:05.825Z,2.00
2022-12-18T23:58:19.063Z,1.80
